Time;durP1;ratioP1;P1;durP2;ratioP2;P2;SDS_P1;SDS_P2;PMS_P1;PMS_P2;Temp;Humidity;BMP_temperature;BMP_pressure;BME280_temperature;BME280_humidity;BME280_pressure;Samples;Min_cycle;Max_cycle;Signal;HPM_P1;HPM_P2
2023/02/26 00:01:48;;;;;;;;;;;2.10;99.90;;;;;;6122006;23;19909;-82
2023/02/26 00:04:14;;;;;;;;;;;2.10;99.90;;;;;;6121902;23;19912;-82
2023/02/26 00:06:51;;;;;;;;;;;2.00;99.90;;;;;;6122079;23;19905;-81
2023/02/26 00:09:17;;;;;;;;;;;2.10;99.90;;;;;;6121827;23;19932;-81
2023/02/26 00:11:42;;;;;;;;;;;2.20;99.90;;;;;;6120049;23;19909;-82
2023/02/26 00:14:10;;;;;;;;;;;2.30;99.90;;;;;;6121714;23;20349;-82
2023/02/26 00:16:36;;;;;;;;;;;2.50;99.90;;;;;;6118852;23;19905;-81
2023/02/26 00:19:03;;;;;;;;;;;2.60;99.90;;;;;;6119743;23;19905;-82
2023/02/26 00:21:29;;;;;;;;;;;2.60;99.90;;;;;;6120369;23;19984;-82
2023/02/26 00:23:55;;;;;;;;;;;2.70;99.90;;;;;;6145335;23;20350;-81
2023/02/26 00:26:22;;;;;;;;;;;2.80;99.90;;;;;;6122177;23;19905;-82
2023/02/26 00:28:48;;;;;;;;;;;2.80;99.90;;;;;;6121879;23;19932;-81
2023/02/26 00:31:15;;;;;;;;;;;2.90;99.90;;;;;;6121764;23;20334;-81
2023/02/26 00:33:41;;;;;;;;;;;2.80;99.90;;;;;;6122102;23;19913;-82
2023/02/26 00:36:25;;;;;;;;;;;2.90;99.90;;;;;;6121931;23;19951;-82
2023/02/26 00:39:00;;;;;;;;;;;2.90;99.90;;;;;;6145012;23;19956;-82
2023/02/26 00:41:25;;;;;;;;;;;3.00;99.90;;;;;;6121613;23;19931;-82
2023/02/26 00:43:51;;;;;;;;;;;3.00;99.90;;;;;;6121898;23;19905;-82
2023/02/26 00:46:16;;;;;;;;;;;3.00;99.90;;;;;;6120228;23;19951;-81
2023/02/26 00:48:41;;;;;;;;;;;3.00;99.90;;;;;;6120308;23;19916;-82
2023/02/26 00:51:12;;;;;;;;;;;3.00;99.90;;;;;;6132154;23;19976;-83
2023/02/26 00:53:45;;;;;;;;;;;3.00;99.90;;;;;;6128774;23;20326;-83
2023/02/26 00:56:10;;;;;;;;;;;3.10;99.90;;;;;;6122247;23;19913;-81
2023/02/26 00:58:35;;;;;;;;;;;3.10;99.90;;;;;;6121064;23;19905;-82
2023/02/26 01:01:01;;;;;;;;;;;3.00;99.90;;;;;;6123775;23;20378;-82
2023/02/26 01:03:27;;;;;;;;;;;3.00;99.90;;;;;;6124237;23;20393;-82
2023/02/26 01:05:52;;;;;;;;;;;3.00;99.90;;;;;;6123337;23;19905;-84
2023/02/26 01:08:28;;;;;;;;;;;3.00;99.90;;;;;;6124960;23;19934;-84
2023/02/26 01:10:54;;;;;;;;;;;3.00;99.90;;;;;;6122915;23;19928;-83
2023/02/26 01:13:19;;;;;;;;;;;3.00;99.90;;;;;;6122571;23;19909;-84
2023/02/26 01:15:51;;;;;;;;;;;3.00;99.90;;;;;;6144500;23;19905;-83
2023/02/26 01:18:37;;;;;;;;;;;3.00;99.90;;;;;;6119553;23;19905;-84
2023/02/26 01:21:04;;;;;;;;;;;3.00;99.90;;;;;;6119186;23;19959;-82
2023/02/26 01:23:31;;;;;;;;;;;3.00;99.90;;;;;;6121083;23;19905;-84
2023/02/26 01:26:02;;;;;;;;;;;2.90;99.90;;;;;;6122436;23;19948;-84
2023/02/26 01:28:27;;;;;;;;;;;2.80;99.90;;;;;;6123325;23;19916;-85
2023/02/26 01:30:54;;;;;;;;;;;2.70;99.90;;;;;;6122730;23;19905;-84
2023/02/26 01:33:23;;;;;;;;;;;2.50;99.90;;;;;;6120420;23;19912;-85
2023/02/26 01:35:52;;;;;;;;;;;2.40;99.90;;;;;;6122463;23;20373;-83
2023/02/26 01:38:27;;;;;;;;;;;2.40;99.90;;;;;;6123056;23;19908;-83
2023/02/26 01:40:58;;;;;;;;;;;2.30;99.90;;;;;;6120997;23;20239;-83
2023/02/26 01:43:28;;;;;;;;;;;2.30;99.90;;;;;;6121124;23;19954;-84
2023/02/26 01:45:58;;;;;;;;;;;2.20;99.90;;;;;;6143900;23;20315;-82
2023/02/26 01:48:33;;;;;;;;;;;2.20;99.90;;;;;;6143775;23;20339;-83
2023/02/26 01:50:58;;;;;;;;;;;2.20;99.90;;;;;;6143604;23;19909;-82
2023/02/26 01:53:25;;;;;;;;;;;2.30;99.90;;;;;;6121616;23;20360;-83
2023/02/26 01:55:58;;;;;;;;;;;2.30;99.90;;;;;;6122157;23;19932;-83
2023/02/26 01:58:26;;;;;;;;;;;2.40;99.90;;;;;;6122214;23;19905;-83
2023/02/26 02:00:52;;;;;;;;;;;2.50;99.90;;;;;;6120677;23;20289;-83
2023/02/26 02:03:19;;;;;;;;;;;2.60;99.90;;;;;;6120713;23;19930;-83
2023/02/26 02:05:52;;;;;;;;;;;2.60;99.90;;;;;;6122071;23;19980;-84
2023/02/26 02:08:18;;;;;;;;;;;2.60;99.90;;;;;;6120300;23;19913;-83
2023/02/26 02:10:45;;;;;;;;;;;2.70;99.90;;;;;;6145285;23;19912;-83
2023/02/26 02:13:31;;;;;;;;;;;2.80;99.90;;;;;;6121867;23;20241;-83
2023/02/26 02:16:02;;;;;;;;;;;2.80;99.90;;;;;;6121880;23;19984;-82
2023/02/26 02:18:28;;;;;;;;;;;2.80;99.90;;;;;;6120583;23;19936;-82
2023/02/26 02:20:56;;;;;;;;;;;2.80;99.90;;;;;;6120515;23;19913;-82
2023/02/26 02:23:32;;;;;;;;;;;2.80;99.90;;;;;;6120393;23;19911;-83
2023/02/26 02:26:09;;;;;;;;;;;2.70;99.90;;;;;;6120442;23;19905;-82
2023/02/26 02:28:47;;;;;;;;;;;2.70;99.90;;;;;;6119949;23;19967;-82
2023/02/26 02:31:26;;;;;;;;;;;2.60;99.90;;;;;;6119630;23;19905;-83
2023/02/26 02:34:11;;;;;;;;;;;2.50;99.90;;;;;;6145778;23;20357;-83
2023/02/26 02:36:59;;;;;;;;;;;2.40;99.90;;;;;;6121293;23;19905;-82
2023/02/26 02:39:30;;;;;;;;;;;2.40;99.90;;;;;;6109054;23;19909;-83
2023/02/26 02:41:56;;;;;;;;;;;2.20;99.90;;;;;;6129107;23;19911;-84
2023/02/26 02:44:23;;;;;;;;;;;2.20;99.90;;;;;;6128707;23;19933;-83
2023/02/26 02:46:51;;;;;;;;;;;2.10;99.90;;;;;;6127681;23;19909;-83
2023/02/26 02:49:29;;;;;;;;;;;2.10;99.90;;;;;;6126004;23;19960;-82
2023/02/26 02:51:57;;;;;;;;;;;2.00;99.90;;;;;;6128058;23;19912;-84
2023/02/26 02:54:22;;;;;;;;;;;2.00;99.90;;;;;;6125029;23;19996;-83
2023/02/26 02:56:50;;;;;;;;;;;2.00;99.90;;;;;;6128529;23;19909;-83
2023/02/26 02:59:33;;;;;;;;;;;1.90;99.90;;;;;;6127068;23;19905;-82
2023/02/26 03:02:09;;;;;;;;;;;1.90;99.90;;;;;;6125970;23;19920;-81
2023/02/26 03:04:34;;;;;;;;;;;1.80;99.90;;;;;;6123269;23;20239;-84
2023/02/26 03:07:00;;;;;;;;;;;1.70;99.90;;;;;;6125789;23;19916;-82
2023/02/26 03:09:25;;;;;;;;;;;1.70;99.90;;;;;;6126248;23;19909;-82
2023/02/26 03:11:51;;;;;;;;;;;1.60;99.90;;;;;;6126261;23;19909;-82
2023/02/26 03:14:17;;;;;;;;;;;1.60;99.90;;;;;;6121991;23;20251;-83
2023/02/26 03:17:01;;;;;;;;;;;1.60;99.90;;;;;;6124582;23;20377;-82
2023/02/26 03:19:29;;;;;;;;;;;1.50;99.90;;;;;;6147252;23;19905;-82
2023/02/26 03:21:59;;;;;;;;;;;1.50;99.90;;;;;;6120382;23;20428;-83
2023/02/26 03:24:34;;;;;;;;;;;1.40;99.90;;;;;;6122854;23;19908;-84
2023/02/26 03:27:04;;;;;;;;;;;1.30;99.90;;;;;;6129785;23;19905;-82
2023/02/26 03:29:52;;;;;;;;;;;1.30;99.90;;;;;;6156656;23;19909;-84
2023/02/26 03:32:22;;;;;;;;;;;1.30;99.90;;;;;;6118012;23;19941;-82
2023/02/26 03:34:50;;;;;;;;;;;1.30;99.90;;;;;;6129623;23;19956;-82
2023/02/26 03:37:25;;;;;;;;;;;1.30;99.90;;;;;;6127814;23;19905;-84
2023/02/26 03:39:55;;;;;;;;;;;1.30;99.90;;;;;;6127114;23;19958;-81
2023/02/26 03:42:43;;;;;;;;;;;1.20;99.90;;;;;;6121520;23;20350;-82
2023/02/26 03:45:13;;;;;;;;;;;1.20;99.90;;;;;;6124064;23;19916;-83
2023/02/26 03:47:41;;;;;;;;;;;1.20;99.90;;;;;;6127653;23;19904;-83
2023/02/26 03:50:10;;;;;;;;;;;1.20;99.90;;;;;;6126928;23;20346;-83
2023/02/26 03:52:37;;;;;;;;;;;1.20;99.90;;;;;;6124263;23;19921;-84
2023/02/26 03:55:07;;;;;;;;;;;1.20;99.90;;;;;;6127879;23;19905;-84
2023/02/26 03:57:33;;;;;;;;;;;1.20;99.90;;;;;;6126243;23;19955;-83
2023/02/26 03:59:58;;;;;;;;;;;1.20;99.90;;;;;;6125063;22;19909;-82
2023/02/26 04:02:26;;;;;;;;;;;1.20;99.90;;;;;;6124258;23;20363;-82
2023/02/26 04:04:52;;;;;;;;;;;1.20;99.90;;;;;;6124530;23;19905;-83
2023/02/26 04:07:18;;;;;;;;;;;1.20;99.90;;;;;;6125133;23;19916;-83
2023/02/26 04:09:45;;;;;;;;;;;1.10;99.90;;;;;;6150651;23;19909;-83
2023/02/26 04:12:10;;;;;;;;;;;1.20;99.90;;;;;;6124704;23;19947;-84
2023/02/26 04:14:36;;;;;;;;;;;1.20;99.90;;;;;;6125407;23;20106;-83
2023/02/26 04:17:01;;;;;;;;;;;1.20;99.90;;;;;;6127381;23;20373;-83
2023/02/26 04:19:27;;;;;;;;;;;1.20;99.90;;;;;;6124604;23;19936;-82
2023/02/26 04:21:52;;;;;;;;;;;1.20;99.90;;;;;;6124837;23;19905;-83
2023/02/26 04:24:18;;;;;;;;;;;1.20;99.90;;;;;;6126752;23;20269;-84
2023/02/26 04:26:44;;;;;;;;;;;1.20;99.90;;;;;;6127767;23;19951;-82
2023/02/26 04:29:09;;;;;;;;;;;1.20;99.90;;;;;;6127216;23;19931;-82
2023/02/26 04:31:35;;;;;;;;;;;1.20;99.90;;;;;;6125239;23;20345;-83
2023/02/26 04:34:00;;;;;;;;;;;1.10;99.90;;;;;;6125747;23;19913;-83
2023/02/26 04:36:26;;;;;;;;;;;1.10;99.90;;;;;;6122653;23;19905;-83
2023/02/26 04:38:51;;;;;;;;;;;1.10;99.90;;;;;;6126469;23;19912;-81
2023/02/26 04:41:17;;;;;;;;;;;1.10;99.90;;;;;;6122036;23;19984;-84
2023/02/26 04:43:42;;;;;;;;;;;1.00;99.90;;;;;;6124512;23;19905;-83
2023/02/26 04:46:08;;;;;;;;;;;1.00;99.90;;;;;;6124005;23;19909;-82
2023/02/26 04:48:33;;;;;;;;;;;1.00;99.90;;;;;;6147288;23;19915;-81
2023/02/26 04:50:58;;;;;;;;;;;1.00;99.90;;;;;;6123584;23;19987;-81
2023/02/26 04:53:24;;;;;;;;;;;1.00;99.90;;;;;;6124927;23;19916;-82
2023/02/26 04:55:49;;;;;;;;;;;1.00;99.90;;;;;;6131297;23;19936;-84
2023/02/26 04:58:15;;;;;;;;;;;1.00;99.90;;;;;;6132387;23;19905;-83
2023/02/26 05:00:40;;;;;;;;;;;0.90;99.90;;;;;;6132449;23;19958;-83
2023/02/26 05:03:07;;;;;;;;;;;0.90;99.90;;;;;;6132799;23;20291;-82
2023/02/26 05:05:33;;;;;;;;;;;0.90;99.90;;;;;;6130478;23;19925;-84
2023/02/26 05:07:58;;;;;;;;;;;0.80;99.90;;;;;;6126551;23;19955;-82
2023/02/26 05:10:23;;;;;;;;;;;0.80;99.90;;;;;;6128505;23;19909;-82
2023/02/26 05:12:49;;;;;;;;;;;0.80;99.90;;;;;;6124121;23;19905;-82
2023/02/26 05:15:15;;;;;;;;;;;0.70;99.90;;;;;;6150209;23;20250;-83
2023/02/26 05:17:40;;;;;;;;;;;0.70;99.90;;;;;;6149445;23;19905;-82
2023/02/26 05:20:08;;;;;;;;;;;0.80;99.90;;;;;;6124458;23;19916;-82
2023/02/26 05:22:34;;;;;;;;;;;0.70;99.90;;;;;;6150702;23;19905;-82
2023/02/26 05:25:00;;;;;;;;;;;0.70;99.90;;;;;;6148189;23;19913;-83
2023/02/26 05:27:25;;;;;;;;;;;0.70;99.90;;;;;;6148048;23;19912;-83
2023/02/26 05:29:51;;;;;;;;;;;0.70;99.90;;;;;;6127577;23;20224;-81
2023/02/26 05:32:16;;;;;;;;;;;0.70;99.90;;;;;;6126775;23;19912;-83
2023/02/26 05:34:42;;;;;;;;;;;0.70;99.90;;;;;;6124788;23;19996;-83
2023/02/26 05:37:07;;;;;;;;;;;0.70;99.90;;;;;;6126422;23;19987;-83
2023/02/26 05:39:33;;;;;;;;;;;0.70;99.90;;;;;;6125176;23;19955;-82
2023/02/26 05:41:58;;;;;;;;;;;0.70;99.90;;;;;;6126488;23;19915;-82
2023/02/26 05:44:24;;;;;;;;;;;0.70;99.90;;;;;;6123910;23;19916;-81
2023/02/26 05:46:49;;;;;;;;;;;0.70;99.90;;;;;;6123740;23;19954;-81
2023/02/26 05:49:15;;;;;;;;;;;0.70;99.90;;;;;;6124832;23;19909;-82
2023/02/26 05:51:41;;;;;;;;;;;0.70;99.90;;;;;;6122460;23;19936;-83
2023/02/26 05:54:07;;;;;;;;;;;0.70;99.90;;;;;;6123751;23;19912;-81
2023/02/26 05:56:33;;;;;;;;;;;0.70;99.90;;;;;;6123593;23;19908;-82
2023/02/26 06:01:36;;;;;;;;;;;0.60;99.90;;;;;;6121444;22;19925;-87
2023/02/26 06:04:01;;;;;;;;;;;0.60;99.90;;;;;;6121178;23;20388;-87
2023/02/26 06:06:27;;;;;;;;;;;0.60;99.90;;;;;;6096608;23;19905;-87
2023/02/26 06:08:53;;;;;;;;;;;0.60;99.90;;;;;;6096592;23;19991;-87
2023/02/26 06:11:18;;;;;;;;;;;0.60;99.90;;;;;;6096739;23;19912;-87
2023/02/26 06:13:44;;;;;;;;;;;0.50;99.90;;;;;;6097170;23;19980;-87
2023/02/26 06:16:09;;;;;;;;;;;0.50;99.90;;;;;;6096906;23;19936;-87
2023/02/26 06:18:35;;;;;;;;;;;0.50;99.90;;;;;;6096969;23;19905;-87
2023/02/26 06:21:01;;;;;;;;;;;0.50;99.90;;;;;;6096285;23;19905;-87
2023/02/26 06:23:26;;;;;;;;;;;0.50;99.90;;;;;;6097902;23;19905;-87
2023/02/26 06:25:52;;;;;;;;;;;0.50;99.90;;;;;;6098350;23;19913;-86
2023/02/26 06:28:18;;;;;;;;;;;0.50;99.90;;;;;;6098362;23;19909;-87
2023/02/26 06:30:44;;;;;;;;;;;0.50;99.90;;;;;;6096677;23;19905;-87
2023/02/26 06:33:09;;;;;;;;;;;0.50;99.90;;;;;;6096872;23;20238;-86
2023/02/26 06:35:35;;;;;;;;;;;0.50;99.90;;;;;;6096594;23;20227;-87
2023/02/26 06:38:01;;;;;;;;;;;0.50;99.90;;;;;;6097002;23;19912;-86
2023/02/26 06:40:26;;;;;;;;;;;0.60;99.90;;;;;;6096631;23;20318;-87
2023/02/26 06:42:52;;;;;;;;;;;0.60;99.90;;;;;;6096617;23;19905;-87
2023/02/26 06:45:18;;;;;;;;;;;0.60;99.90;;;;;;6096345;23;19995;-87
2023/02/26 06:47:44;;;;;;;;;;;0.60;99.90;;;;;;6096611;23;19912;-86
2023/02/26 06:50:09;;;;;;;;;;;0.60;99.90;;;;;;6096450;23;19909;-86
2023/02/26 06:52:35;;;;;;;;;;;0.60;99.90;;;;;;6096202;23;19958;-87
2023/02/26 06:55:01;;;;;;;;;;;0.60;99.90;;;;;;6096712;23;20216;-87
2023/02/26 06:57:27;;;;;;;;;;;0.60;99.90;;;;;;6096918;23;19912;-87
2023/02/26 06:59:52;;;;;;;;;;;0.70;99.90;;;;;;6096791;23;20525;-86
2023/02/26 07:02:19;;;;;;;;;;;0.70;99.90;;;;;;6096636;23;20030;-87
2023/02/26 07:04:45;;;;;;;;;;;0.70;99.90;;;;;;6096281;23;19941;-87
2023/02/26 07:07:11;;;;;;;;;;;0.70;99.90;;;;;;6096627;23;19909;-87
2023/02/26 07:09:36;;;;;;;;;;;0.70;99.90;;;;;;6096426;23;19913;-86
2023/02/26 07:12:03;;;;;;;;;;;0.80;99.90;;;;;;6096300;23;20314;-86
2023/02/26 07:14:28;;;;;;;;;;;0.80;99.90;;;;;;6096739;23;19936;-86
2023/02/26 07:16:54;;;;;;;;;;;0.80;99.90;;;;;;6096459;23;19905;-87
2023/02/26 07:19:19;;;;;;;;;;;0.90;99.90;;;;;;6096402;23;19909;-87
2023/02/26 07:21:46;;;;;;;;;;;0.90;99.90;;;;;;6096597;23;20274;-86
2023/02/26 07:24:11;;;;;;;;;;;0.90;99.90;;;;;;6096430;23;19933;-87
2023/02/26 07:26:38;;;;;;;;;;;0.90;99.90;;;;;;6096507;23;20384;-86
2023/02/26 07:29:03;;;;;;;;;;;1.00;99.90;;;;;;6096202;23;19916;-87
2023/02/26 07:31:29;;;;;;;;;;;1.00;99.90;;;;;;6096412;23;19905;-87
2023/02/26 07:33:54;;;;;;;;;;;1.10;99.90;;;;;;6096446;23;20385;-87
2023/02/26 07:36:20;;;;;;;;;;;1.10;99.90;;;;;;6096711;23;19948;-87
2023/02/26 07:38:45;;;;;;;;;;;1.20;99.90;;;;;;6096260;23;20504;-86
2023/02/26 07:41:11;;;;;;;;;;;1.20;99.90;;;;;;6096304;23;19976;-87
2023/02/26 07:43:36;;;;;;;;;;;1.20;99.90;;;;;;6096356;23;19905;-87
2023/02/26 07:46:02;;;;;;;;;;;1.20;99.90;;;;;;6096346;23;19932;-87
2023/02/26 07:48:28;;;;;;;;;;;1.30;99.90;;;;;;6096293;23;19963;-87
2023/02/26 07:50:54;;;;;;;;;;;1.40;99.90;;;;;;6096121;23;19905;-86
2023/02/26 07:53:20;;;;;;;;;;;1.40;99.90;;;;;;6096560;23;19905;-87
2023/02/26 07:55:46;;;;;;;;;;;1.50;99.90;;;;;;6096168;23;19915;-87
2023/02/26 07:58:11;;;;;;;;;;;1.60;99.90;;;;;;6096160;23;19905;-86
2023/02/26 08:00:37;;;;;;;;;;;1.60;99.90;;;;;;6096185;23;19913;-85
2023/02/26 08:03:03;;;;;;;;;;;1.70;99.90;;;;;;6096315;23;19905;-86
2023/02/26 08:05:28;;;;;;;;;;;1.80;99.90;;;;;;6096747;23;19905;-87
2023/02/26 08:07:54;;;;;;;;;;;1.90;99.90;;;;;;6096404;23;19936;-86
2023/02/26 08:10:20;;;;;;;;;;;1.90;99.90;;;;;;6096516;23;20291;-86
2023/02/26 08:12:45;;;;;;;;;;;2.00;99.90;;;;;;6096329;23;19909;-87
2023/02/26 08:15:14;;;;;;;;;;;2.10;99.90;;;;;;6097491;23;19905;-83
2023/02/26 08:17:40;;;;;;;;;;;2.20;99.90;;;;;;6096560;23;19905;-87
2023/02/26 08:20:07;;;;;;;;;;;2.30;99.90;;;;;;6096057;23;20289;-85
2023/02/26 08:22:33;;;;;;;;;;;2.30;99.90;;;;;;6096073;23;19913;-91
2023/02/26 08:24:58;;;;;;;;;;;2.40;99.90;;;;;;6096309;23;19905;-88
2023/02/26 08:27:24;;;;;;;;;;;2.50;99.90;;;;;;6095871;23;19909;-87
2023/02/26 08:29:50;;;;;;;;;;;2.60;99.90;;;;;;6096081;23;19916;-88
2023/02/26 08:32:18;;;;;;;;;;;2.60;99.90;;;;;;6096214;23;19909;-87
2023/02/26 08:34:44;;;;;;;;;;;2.60;99.90;;;;;;6095973;23;19905;-88
2023/02/26 08:37:10;;;;;;;;;;;2.60;99.90;;;;;;6096456;23;19905;-84
2023/02/26 08:39:37;;;;;;;;;;;2.60;99.90;;;;;;6097306;23;19962;-82
2023/02/26 08:42:06;;;;;;;;;;;2.60;99.90;;;;;;6096528;23;19911;-83
2023/02/26 08:44:32;;;;;;;;;;;2.70;99.90;;;;;;6096340;23;19911;-82
2023/02/26 08:46:58;;;;;;;;;;;2.90;99.90;;;;;;6096928;23;19941;-83
2023/02/26 08:49:24;;;;;;;;;;;2.90;99.90;;;;;;6096891;23;20346;-84
2023/02/26 08:51:49;;;;;;;;;;;2.90;99.90;;;;;;6096138;23;19912;-84
2023/02/26 08:54:15;;;;;;;;;;;2.90;99.90;;;;;;6096250;23;19942;-85
2023/02/26 08:56:40;;;;;;;;;;;3.10;99.90;;;;;;6095957;23;19935;-86
2023/02/26 08:59:06;;;;;;;;;;;3.10;99.90;;;;;;6095507;23;20313;-86
2023/02/26 09:01:32;;;;;;;;;;;3.20;99.90;;;;;;6095274;23;19920;-85
2023/02/26 09:03:57;;;;;;;;;;;3.20;99.90;;;;;;6122573;23;19980;-86
2023/02/26 09:06:23;;;;;;;;;;;3.40;99.90;;;;;;6096154;23;19904;-86
2023/02/26 09:08:48;;;;;;;;;;;3.50;99.90;;;;;;6096530;23;20274;-87
2023/02/26 09:11:14;;;;;;;;;;;3.60;99.90;;;;;;6096497;23;19951;-85
2023/02/26 09:13:40;;;;;;;;;;;3.70;99.90;;;;;;6096492;23;19905;-87
2023/02/26 09:16:06;;;;;;;;;;;3.80;99.90;;;;;;6122598;23;19913;-86
2023/02/26 09:18:32;;;;;;;;;;;4.00;99.90;;;;;;6096827;23;19905;-86
2023/02/26 09:20:57;;;;;;;;;;;4.00;99.90;;;;;;6096473;23;19908;-86
2023/02/26 09:23:23;;;;;;;;;;;4.00;99.90;;;;;;6096318;23;19967;-85
2023/02/26 09:25:53;;;;;;;;;;;4.10;99.90;;;;;;6096405;23;19979;-86
2023/02/26 09:28:18;;;;;;;;;;;4.10;99.90;;;;;;6096363;23;20227;-88
2023/02/26 09:30:44;;;;;;;;;;;4.30;99.90;;;;;;6096415;23;20028;-85
2023/02/26 09:33:09;;;;;;;;;;;4.20;99.90;;;;;;6096403;23;20239;-87
2023/02/26 09:35:35;;;;;;;;;;;4.30;99.90;;;;;;6096433;23;20338;-85
2023/02/26 09:38:02;;;;;;;;;;;4.40;99.90;;;;;;6096428;23;19912;-85
2023/02/26 09:40:47;;;;;;;;;;;4.60;99.90;;;;;;6096473;23;19904;-85
2023/02/26 09:43:18;;;;;;;;;;;4.60;99.90;;;;;;6096991;23;19911;-87
2023/02/26 09:45:45;;;;;;;;;;;4.80;99.90;;;;;;6096821;23;19905;-84
2023/02/26 09:48:14;;;;;;;;;;;4.80;99.90;;;;;;6096514;23;19905;-87
2023/02/26 09:50:39;;;;;;;;;;;4.90;99.90;;;;;;6096559;23;19912;-88
2023/02/26 09:53:17;;;;;;;;;;;5.10;99.90;;;;;;6096942;23;19908;-88
2023/02/26 09:55:49;;;;;;;;;;;5.10;99.90;;;;;;6096557;23;19943;-88
2023/02/26 09:58:17;;;;;;;;;;;5.30;99.90;;;;;;6096800;23;19960;-86
2023/02/26 10:00:50;;;;;;;;;;;5.40;99.90;;;;;;6096316;23;19917;-85
2023/02/26 10:03:29;;;;;;;;;;;5.40;99.90;;;;;;6100676;23;20342;-86
2023/02/26 10:06:13;;;;;;;;;;;5.50;99.90;;;;;;6099135;23;19905;-85
2023/02/26 10:08:59;;;;;;;;;;;5.50;99.90;;;;;;6097234;23;20337;-86
2023/02/26 10:11:30;;;;;;;;;;;5.50;99.90;;;;;;6097325;23;20386;-86
2023/02/26 10:14:00;;;;;;;;;;;5.50;99.90;;;;;;6097773;23;19996;-88
2023/02/26 10:16:26;;;;;;;;;;;5.50;99.90;;;;;;6096447;23;19915;-88
2023/02/26 10:18:56;;;;;;;;;;;5.50;99.90;;;;;;6096960;23;19911;-86
2023/02/26 10:21:27;;;;;;;;;;;5.50;99.90;;;;;;6096784;23;20293;-87
2023/02/26 10:23:55;;;;;;;;;;;5.60;99.90;;;;;;6101911;23;19905;-86
2023/02/26 10:26:22;;;;;;;;;;;5.80;99.90;;;;;;6098817;23;19905;-87
2023/02/26 10:28:53;;;;;;;;;;;6.00;99.90;;;;;;6100567;23;19908;-85
2023/02/26 10:31:25;;;;;;;;;;;6.10;99.90;;;;;;6100644;23;20353;-85
2023/02/26 10:33:56;;;;;;;;;;;6.40;99.90;;;;;;6098084;23;19912;-88
2023/02/26 10:45:46;;;;;;;;;;;7.70;95.20;;;;;;6122482;23;20350;-87
2023/02/26 10:48:27;;;;;;;;;;;11.10;92.50;;;;;;6096316;23;19975;-89
2023/02/26 10:51:14;;;;;;;;;;;14.70;77.80;;;;;;6096657;23;19925;-89
2023/02/26 10:53:46;;;;;;;;;;;16.80;55.40;;;;;;6096753;23;19927;-89
2023/02/26 10:56:16;;;;;;;;;;;19.60;99.90;;;;;;6097962;23;19905;-89
2023/02/26 10:58:42;;;;;;;;;;;20.20;99.90;;;;;;6096025;23;19913;-82
2023/02/26 11:01:18;;;;;;;;;;;20.50;99.90;;;;;;6094054;23;19913;-82
2023/02/26 11:03:46;;;;;;;;;;;21.20;99.90;;;;;;6096082;23;20410;-83
2023/02/26 11:06:16;;;;;;;;;;;22.20;99.90;;;;;;6121483;23;19928;-83
2023/02/26 11:08:44;;;;;;;;;;;23.70;99.90;;;;;;6095403;23;19905;-83
2023/02/26 11:11:09;;;;;;;;;;;24.70;99.90;;;;;;6095153;23;19952;-83
2023/02/26 11:13:36;;;;;;;;;;;25.00;1.00;;;;;;6095273;23;19928;-83
2023/02/26 11:16:08;;;;;;;;;;;23.80;99.90;;;;;;6094827;23;19913;-83
2023/02/26 11:18:52;;;;;;;;;;;21.00;99.90;;;;;;6095459;23;19909;-83
2023/02/26 11:21:22;;;;;;;;;;;17.90;99.90;;;;;;6095228;23;19976;-82
2023/02/26 11:23:49;;;;;;;;;;;16.00;99.90;;;;;;6095606;23;19912;-83
2023/02/26 11:26:18;;;;;;;;;;;14.40;99.90;;;;;;6095286;23;20258;-82
2023/02/26 11:28:46;;;;;;;;;;;13.50;99.90;;;;;;6121694;23;19936;-81
2023/02/26 11:31:13;;;;;;;;;;;12.40;99.90;;;;;;6095291;23;19905;-80
2023/02/26 11:33:42;;;;;;;;;;;11.70;99.90;;;;;;6096428;23;19912;-80
2023/02/26 11:36:11;;;;;;;;;;;11.20;99.90;;;;;;6096624;23;20223;-82
2023/02/26 11:38:36;;;;;;;;;;;11.00;99.90;;;;;;6096494;23;19909;-79
2023/02/26 11:41:03;;;;;;;;;;;10.90;99.90;;;;;;6097144;23;20293;-79
2023/02/26 11:43:40;;;;;;;;;;;10.90;99.90;;;;;;6098008;23;19905;-80
2023/02/26 11:46:06;;;;;;;;;;;10.70;99.90;;;;;;6097465;23;20250;-80
2023/02/26 11:48:37;;;;;;;;;;;10.90;99.90;;;;;;6097079;23;19905;-80
2023/02/26 11:51:03;;;;;;;;;;;12.30;99.90;;;;;;6098374;23;19951;-80
2023/02/26 11:53:40;;;;;;;;;;;12.70;99.90;;;;;;6097475;23;19917;-80
2023/02/26 11:56:13;;;;;;;;;;;13.50;99.90;;;;;;6097265;23;19958;-78
2023/02/26 11:58:40;;;;;;;;;;;15.50;99.90;;;;;;6096346;23;19963;-86
2023/02/26 12:01:06;;;;;;;;;;;17.30;99.90;;;;;;6094079;23;20050;-84
2023/02/26 12:03:33;;;;;;;;;;;18.90;99.90;;;;;;6152353;22;19921;-77
2023/02/26 12:06:00;;;;;;;;;;;19.90;99.90;;;;;;6120873;23;20269;-78
2023/02/26 12:08:31;;;;;;;;;;;20.30;99.90;;;;;;6121433;23;19916;-78
2023/02/26 12:11:06;;;;;;;;;;;19.90;99.90;;;;;;6122508;23;19912;-78
2023/02/26 12:13:36;;;;;;;;;;;19.20;99.90;;;;;;6122712;23;20327;-79
2023/02/26 12:16:19;;;;;;;;;;;17.80;99.90;;;;;;6123929;23;19930;-79
2023/02/26 12:18:50;;;;;;;;;;;17.20;99.90;;;;;;6146174;23;19920;-77
2023/02/26 12:21:30;;;;;;;;;;;17.80;99.90;;;;;;6172168;22;19918;-81
2023/02/26 12:23:59;;;;;;;;;;;19.20;99.90;;;;;;6274469;22;19945;-80
2023/02/26 12:26:27;;;;;;;;;;;18.80;99.90;;;;;;6275711;22;20287;-83
2023/02/26 12:28:52;;;;;;;;;;;19.70;99.90;;;;;;6275621;22;19903;-82
2023/02/26 12:31:36;;;;;;;;;;;21.10;99.90;;;;;;6275175;22;19934;-81
2023/02/26 12:34:08;;;;;;;;;;;19.60;99.90;;;;;;6275736;22;19907;-80
2023/02/26 12:36:42;;;;;;;;;;;18.50;99.90;;;;;;6277263;22;19903;-81
2023/02/26 12:39:27;;;;;;;;;;;18.30;99.90;;;;;;6276643;22;19934;-82
2023/02/26 12:41:52;;;;;;;;;;;17.30;99.90;;;;;;6273993;22;19911;-81
2023/02/26 12:44:26;;;;;;;;;;;16.10;99.90;;;;;;6275936;22;20216;-81
2023/02/26 12:47:18;;;;;;;;;;;16.50;99.90;;;;;;6274473;22;19961;-82
2023/02/26 12:49:43;;;;;;;;;;;18.60;99.90;;;;;;6275677;22;19904;-81
2023/02/26 12:52:18;;;;;;;;;;;20.30;99.90;;;;;;6274908;22;19907;-81
2023/02/26 12:54:52;;;;;;;;;;;21.30;99.90;;;;;;6275847;22;19899;-82
2023/02/26 12:57:36;;;;;;;;;;;22.80;99.90;;;;;;6275418;22;19914;-81
2023/02/26 13:00:11;;;;;;;;;;;23.40;99.90;;;;;;6274025;22;20291;-82
2023/02/26 13:02:56;;;;;;;;;;;22.70;99.90;;;;;;6273835;22;19903;-81
2023/02/26 13:05:24;;;;;;;;;;;20.30;99.90;;;;;;6275381;22;19939;-81
2023/02/26 13:08:05;;;;;;;;;;;18.80;99.90;;;;;;6275788;22;19986;-81
2023/02/26 13:10:49;;;;;;;;;;;19.30;99.90;;;;;;6274177;22;19903;-81
2023/02/26 13:13:33;;;;;;;;;;;20.30;99.90;;;;;;6274980;22;19938;-80
2023/02/26 13:15:59;;;;;;;;;;;20.80;99.90;;;;;;6275909;22;19911;-80
2023/02/26 13:18:30;;;;;;;;;;;21.70;99.90;;;;;;6275774;22;20224;-80
2023/02/26 13:21:01;;;;;;;;;;;21.70;99.90;;;;;;6275719;22;19903;-81
2023/02/26 13:23:36;;;;;;;;;;;21.80;99.90;;;;;;6271711;22;20282;-81
2023/02/26 13:26:05;;;;;;;;;;;22.80;99.90;;;;;;6275193;22;20280;-81
2023/02/26 13:28:31;;;;;;;;;;;23.40;99.90;;;;;;6275519;22;20351;-81
2023/02/26 13:30:57;;;;;;;;;;;23.80;99.90;;;;;;6248097;22;19903;-82
2023/02/26 13:33:25;;;;;;;;;;;22.90;99.90;;;;;;6275147;22;19910;-80
2023/02/26 13:35:52;;;;;;;;;;;21.00;99.90;;;;;;6273523;22;19903;-80
2023/02/26 13:38:23;;;;;;;;;;;18.70;99.90;;;;;;6274545;22;19911;-81
2023/02/26 13:41:07;;;;;;;;;;;18.20;99.90;;;;;;6247954;22;20349;-80
2023/02/26 13:43:40;;;;;;;;;;;17.70;99.90;;;;;;6247650;22;19903;-81
2023/02/26 13:46:12;;;;;;;;;;;16.90;99.90;;;;;;6247640;22;19915;-80
2023/02/26 13:48:47;;;;;;;;;;;16.40;99.90;;;;;;6276207;22;19903;-80
2023/02/26 13:51:14;;;;;;;;;;;16.20;99.90;;;;;;6249812;22;19910;-79
2023/02/26 13:53:39;;;;;;;;;;;15.60;99.90;;;;;;6277255;22;19903;-80
2023/02/26 13:56:20;;;;;;;;;;;15.70;99.90;;;;;;6277446;22;19974;-80
2023/02/26 13:58:53;;;;;;;;;;;15.80;99.90;;;;;;6277207;22;19957;-80
2023/02/26 14:01:25;;;;;;;;;;;14.90;99.90;;;;;;6275145;22;19904;-79
2023/02/26 14:03:52;;;;;;;;;;;13.70;99.90;;;;;;6278403;22;19951;-79
2023/02/26 14:06:21;;;;;;;;;;;12.90;99.90;;;;;;6279157;22;19970;-80
2023/02/26 14:08:48;;;;;;;;;;;12.30;99.90;;;;;;6278536;22;19904;-79
2023/02/26 14:11:16;;;;;;;;;;;11.70;99.90;;;;;;6278041;22;19926;-81
2023/02/26 14:14:01;;;;;;;;;;;11.50;99.90;;;;;;6276888;22;20161;-80
2023/02/26 14:16:27;;;;;;;;;;;11.50;99.90;;;;;;6250521;22;20042;-80
2023/02/26 14:19:01;;;;;;;;;;;12.20;99.90;;;;;;6276231;22;19908;-80
2023/02/26 14:21:34;;;;;;;;;;;12.90;99.90;;;;;;6276860;22;19907;-80
2023/02/26 14:24:00;;;;;;;;;;;14.60;99.90;;;;;;6277860;22;19908;-80
2023/02/26 14:26:27;;;;;;;;;;;16.70;99.90;;;;;;6277784;22;20321;-80
2023/02/26 14:28:55;;;;;;;;;;;18.00;99.90;;;;;;6250428;22;19903;-79
2023/02/26 14:31:21;;;;;;;;;;;19.20;99.90;;;;;;6277165;22;20305;-80
2023/02/26 14:33:57;;;;;;;;;;;20.50;99.90;;;;;;6277906;22;19910;-80
2023/02/26 14:36:34;;;;;;;;;;;21.80;99.90;;;;;;6276966;22;19903;-80
2023/02/26 14:39:03;;;;;;;;;;;23.00;99.90;;;;;;6249235;22;19964;-80
2023/02/26 14:41:31;;;;;;;;;;;23.60;99.90;;;;;;6277878;22;19907;-80
2023/02/26 14:44:02;;;;;;;;;;;24.50;99.90;;;;;;6275557;22;19903;-80
2023/02/26 14:46:27;;;;;;;;;;;25.00;99.90;;;;;;6276397;22;19904;-80
2023/02/26 14:48:53;;;;;;;;;;;25.10;99.90;;;;;;6276752;22;19910;-80